sensor_id;sensor_type;location;lat;lon;timestamp;P1;durP1;ratioP1;P2;durP2;ratioP2
37873;SDS011;23709;48.078;11.684;2023-03-23T00:02:14;7.05;;;3.22;;
37873;SDS011;23709;48.078;11.684;2023-03-23T00:04:47;5.30;;;3.83;;
37873;SDS011;23709;48.078;11.684;2023-03-23T00:07:21;6.88;;;3.47;;
37873;SDS011;23709;48.078;11.684;2023-03-23T00:09:55;4.97;;;3.70;;
37873;SDS011;23709;48.078;11.684;2023-03-23T00:12:28;9.52;;;4.40;;
37873;SDS011;23709;48.078;11.684;2023-03-23T00:15:07;13.57;;;6.10;;
37873;SDS011;23709;48.078;11.684;2023-03-23T00:17:40;7.68;;;4.95;;
37873;SDS011;23709;48.078;11.684;2023-03-23T00:20:12;7.25;;;4.38;;
37873;SDS011;23709;48.078;11.684;2023-03-23T00:22:44;6.78;;;4.22;;
37873;SDS011;23709;48.078;11.684;2023-03-23T00:25:16;10.73;;;4.47;;
37873;SDS011;23709;48.078;11.684;2023-03-23T00:27:50;9.60;;;4.90;;
37873;SDS011;23709;48.078;11.684;2023-03-23T00:30:22;13.18;;;6.35;;
37873;SDS011;23709;48.078;11.684;2023-03-23T00:32:54;14.13;;;6.27;;
37873;SDS011;23709;48.078;11.684;2023-03-23T00:35:27;11.55;;;6.35;;
37873;SDS011;23709;48.078;11.684;2023-03-23T00:37:59;13.30;;;6.03;;
37873;SDS011;23709;48.078;11.684;2023-03-23T00:40:32;10.90;;;6.07;;
37873;SDS011;23709;48.078;11.684;2023-03-23T00:43:07;15.80;;;6.78;;
37873;SDS011;23709;48.078;11.684;2023-03-23T00:45:40;8.52;;;4.47;;
37873;SDS011;23709;48.078;11.684;2023-03-23T00:48:13;7.70;;;4.25;;
37873;SDS011;23709;48.078;11.684;2023-03-23T00:50:45;6.57;;;3.85;;
37873;SDS011;23709;48.078;11.684;2023-03-23T00:53:18;8.43;;;4.53;;
37873;SDS011;23709;48.078;11.684;2023-03-23T00:55:51;9.23;;;5.05;;
37873;SDS011;23709;48.078;11.684;2023-03-23T00:58:23;10.80;;;6.13;;
37873;SDS011;23709;48.078;11.684;2023-03-23T01:00:56;9.82;;;4.80;;
37873;SDS011;23709;48.078;11.684;2023-03-23T01:03:28;11.13;;;5.28;;
37873;SDS011;23709;48.078;11.684;2023-03-23T01:06:04;9.73;;;4.85;;
37873;SDS011;23709;48.078;11.684;2023-03-23T01:08:42;9.85;;;5.63;;
37873;SDS011;23709;48.078;11.684;2023-03-23T01:11:17;19.33;;;7.55;;
37873;SDS011;23709;48.078;11.684;2023-03-23T01:13:50;16.67;;;7.43;;
37873;SDS011;23709;48.078;11.684;2023-03-23T01:16:24;21.60;;;9.25;;
37873;SDS011;23709;48.078;11.684;2023-03-23T01:18:57;13.35;;;5.75;;
37873;SDS011;23709;48.078;11.684;2023-03-23T01:21:29;16.48;;;7.28;;
37873;SDS011;23709;48.078;11.684;2023-03-23T01:24:02;13.47;;;6.73;;
37873;SDS011;23709;48.078;11.684;2023-03-23T01:26:34;12.45;;;6.15;;
37873;SDS011;23709;48.078;11.684;2023-03-23T01:29:07;11.63;;;5.15;;
37873;SDS011;23709;48.078;11.684;2023-03-23T01:31:39;12.02;;;5.55;;
37873;SDS011;23709;48.078;11.684;2023-03-23T01:34:12;18.20;;;8.20;;
37873;SDS011;23709;48.078;11.684;2023-03-23T01:36:44;10.40;;;5.68;;
37873;SDS011;23709;48.078;11.684;2023-03-23T01:39:16;14.10;;;7.35;;
37873;SDS011;23709;48.078;11.684;2023-03-23T01:41:48;9.63;;;5.32;;
37873;SDS011;23709;48.078;11.684;2023-03-23T01:47:09;8.05;;;4.75;;
37873;SDS011;23709;48.078;11.684;2023-03-23T01:49:43;9.50;;;4.53;;
37873;SDS011;23709;48.078;11.684;2023-03-23T01:52:22;8.38;;;4.53;;
37873;SDS011;23709;48.078;11.684;2023-03-23T01:55:02;7.07;;;4.47;;
37873;SDS011;23709;48.078;11.684;2023-03-23T01:57:36;8.75;;;4.78;;
37873;SDS011;23709;48.078;11.684;2023-03-23T02:00:09;13.93;;;5.73;;
37873;SDS011;23709;48.078;11.684;2023-03-23T02:02:54;9.20;;;4.57;;
37873;SDS011;23709;48.078;11.684;2023-03-23T02:05:31;6.78;;;4.47;;
37873;SDS011;23709;48.078;11.684;2023-03-23T02:08:14;9.70;;;4.57;;
37873;SDS011;23709;48.078;11.684;2023-03-23T02:10:50;12.07;;;4.20;;
37873;SDS011;23709;48.078;11.684;2023-03-23T02:13:23;10.40;;;4.90;;
37873;SDS011;23709;48.078;11.684;2023-03-23T02:16:03;8.10;;;4.35;;
37873;SDS011;23709;48.078;11.684;2023-03-23T02:19:13;7.15;;;4.63;;
37873;SDS011;23709;48.078;11.684;2023-03-23T02:30:47;9.05;;;3.80;;
37873;SDS011;23709;48.078;11.684;2023-03-23T02:36:29;6.68;;;3.85;;
37873;SDS011;23709;48.078;11.684;2023-03-23T02:39:22;11.20;;;3.88;;
37873;SDS011;23709;48.078;11.684;2023-03-23T02:41:59;8.18;;;3.63;;
37873;SDS011;23709;48.078;11.684;2023-03-23T02:44:46;7.63;;;3.58;;
37873;SDS011;23709;48.078;11.684;2023-03-23T02:47:21;7.03;;;3.25;;
37873;SDS011;23709;48.078;11.684;2023-03-23T02:49:57;4.95;;;3.22;;
37873;SDS011;23709;48.078;11.684;2023-03-23T02:52:31;4.07;;;3.00;;
37873;SDS011;23709;48.078;11.684;2023-03-23T02:55:06;5.13;;;3.15;;
37873;SDS011;23709;48.078;11.684;2023-03-23T02:57:40;6.72;;;3.33;;
37873;SDS011;23709;48.078;11.684;2023-03-23T03:00:15;5.03;;;3.08;;
37873;SDS011;23709;48.078;11.684;2023-03-23T03:02:52;4.63;;;3.22;;
37873;SDS011;23709;48.078;11.684;2023-03-23T03:17:19;7.15;;;3.45;;
37873;SDS011;23709;48.078;11.684;2023-03-23T03:19:58;8.23;;;3.08;;
37873;SDS011;23709;48.078;11.684;2023-03-23T03:22:40;5.72;;;3.33;;
37873;SDS011;23709;48.078;11.684;2023-03-23T03:25:16;8.32;;;3.38;;
37873;SDS011;23709;48.078;11.684;2023-03-23T03:27:50;6.18;;;3.58;;
37873;SDS011;23709;48.078;11.684;2023-03-23T03:30:33;5.28;;;3.00;;
37873;SDS011;23709;48.078;11.684;2023-03-23T03:33:09;6.25;;;3.47;;
37873;SDS011;23709;48.078;11.684;2023-03-23T03:35:43;4.97;;;3.55;;
37873;SDS011;23709;48.078;11.684;2023-03-23T03:40:49;6.70;;;3.55;;
37873;SDS011;23709;48.078;11.684;2023-03-23T03:43:22;4.88;;;2.90;;
37873;SDS011;23709;48.078;11.684;2023-03-23T03:45:55;5.85;;;3.53;;
37873;SDS011;23709;48.078;11.684;2023-03-23T03:48:28;4.78;;;3.33;;
37873;SDS011;23709;48.078;11.684;2023-03-23T03:51:00;7.30;;;3.47;;
37873;SDS011;23709;48.078;11.684;2023-03-23T03:53:38;5.45;;;3.25;;
37873;SDS011;23709;48.078;11.684;2023-03-23T03:56:10;3.63;;;2.65;;
37873;SDS011;23709;48.078;11.684;2023-03-23T03:58:48;5.13;;;2.97;;
37873;SDS011;23709;48.078;11.684;2023-03-23T04:01:30;4.00;;;2.78;;
37873;SDS011;23709;48.078;11.684;2023-03-23T04:04:03;16.67;;;2.92;;
37873;SDS011;23709;48.078;11.684;2023-03-23T04:06:40;5.22;;;2.53;;
37873;SDS011;23709;48.078;11.684;2023-03-23T04:09:13;6.25;;;2.97;;
37873;SDS011;23709;48.078;11.684;2023-03-23T04:14:45;6.00;;;3.08;;
37873;SDS011;23709;48.078;11.684;2023-03-23T04:17:17;14.18;;;3.50;;
37873;SDS011;23709;48.078;11.684;2023-03-23T04:19:52;5.72;;;3.28;;
37873;SDS011;23709;48.078;11.684;2023-03-23T04:22:32;5.20;;;2.72;;
37873;SDS011;23709;48.078;11.684;2023-03-23T04:25:06;6.10;;;2.65;;
37873;SDS011;23709;48.078;11.684;2023-03-23T04:27:40;4.10;;;2.83;;
37873;SDS011;23709;48.078;11.684;2023-03-23T04:30:19;4.55;;;2.58;;
37873;SDS011;23709;48.078;11.684;2023-03-23T04:33:05;8.45;;;3.35;;
37873;SDS011;23709;48.078;11.684;2023-03-23T04:35:38;5.88;;;2.78;;
37873;SDS011;23709;48.078;11.684;2023-03-23T04:38:22;7.28;;;3.50;;
37873;SDS011;23709;48.078;11.684;2023-03-23T04:41:03;4.75;;;3.03;;
37873;SDS011;23709;48.078;11.684;2023-03-23T04:43:58;6.38;;;3.28;;
37873;SDS011;23709;48.078;11.684;2023-03-23T04:46:48;6.57;;;3.70;;
37873;SDS011;23709;48.078;11.684;2023-03-23T04:49:23;9.40;;;4.28;;
37873;SDS011;23709;48.078;11.684;2023-03-23T04:52:05;6.32;;;3.00;;
37873;SDS011;23709;48.078;11.684;2023-03-23T04:54:47;5.03;;;3.28;;
37873;SDS011;23709;48.078;11.684;2023-03-23T04:57:19;5.95;;;3.22;;
37873;SDS011;23709;48.078;11.684;2023-03-23T05:00:12;5.45;;;3.10;;
37873;SDS011;23709;48.078;11.684;2023-03-23T05:02:52;4.45;;;2.63;;
37873;SDS011;23709;48.078;11.684;2023-03-23T05:05:30;3.55;;;2.80;;
37873;SDS011;23709;48.078;11.684;2023-03-23T05:08:08;4.13;;;3.10;;
37873;SDS011;23709;48.078;11.684;2023-03-23T05:10:49;4.65;;;2.88;;
37873;SDS011;23709;48.078;11.684;2023-03-23T05:13:28;7.35;;;3.35;;
37873;SDS011;23709;48.078;11.684;2023-03-23T05:16:03;4.85;;;3.20;;
37873;SDS011;23709;48.078;11.684;2023-03-23T05:18:38;6.07;;;2.72;;
37873;SDS011;23709;48.078;11.684;2023-03-23T05:21:14;3.90;;;2.80;;
37873;SDS011;23709;48.078;11.684;2023-03-23T05:23:52;4.22;;;2.90;;
37873;SDS011;23709;48.078;11.684;2023-03-23T05:26:27;7.72;;;3.42;;
37873;SDS011;23709;48.078;11.684;2023-03-23T05:29:08;6.47;;;2.92;;
37873;SDS011;23709;48.078;11.684;2023-03-23T05:31:52;6.65;;;3.00;;
37873;SDS011;23709;48.078;11.684;2023-03-23T05:34:28;5.65;;;3.20;;
37873;SDS011;23709;48.078;11.684;2023-03-23T05:37:05;6.75;;;3.40;;
37873;SDS011;23709;48.078;11.684;2023-03-23T05:39:54;8.32;;;2.95;;
37873;SDS011;23709;48.078;11.684;2023-03-23T05:42:30;7.25;;;3.40;;
37873;SDS011;23709;48.078;11.684;2023-03-23T05:45:16;7.45;;;3.42;;
37873;SDS011;23709;48.078;11.684;2023-03-23T05:47:50;8.10;;;3.47;;
37873;SDS011;23709;48.078;11.684;2023-03-23T05:50:25;6.88;;;3.15;;
37873;SDS011;23709;48.078;11.684;2023-03-23T05:52:57;12.17;;;5.00;;
37873;SDS011;23709;48.078;11.684;2023-03-23T05:55:30;8.38;;;4.57;;
37873;SDS011;23709;48.078;11.684;2023-03-23T05:58:12;8.80;;;3.90;;
37873;SDS011;23709;48.078;11.684;2023-03-23T06:00:48;8.48;;;4.10;;
37873;SDS011;23709;48.078;11.684;2023-03-23T06:03:31;5.38;;;3.45;;
37873;SDS011;23709;48.078;11.684;2023-03-23T06:06:26;4.38;;;3.35;;
37873;SDS011;23709;48.078;11.684;2023-03-23T06:09:09;9.45;;;3.25;;
37873;SDS011;23709;48.078;11.684;2023-03-23T06:12:15;4.25;;;3.05;;
37873;SDS011;23709;48.078;11.684;2023-03-23T06:14:53;7.78;;;3.45;;
37873;SDS011;23709;48.078;11.684;2023-03-23T06:17:34;6.03;;;3.80;;
37873;SDS011;23709;48.078;11.684;2023-03-23T06:22:44;6.10;;;3.72;;
37873;SDS011;23709;48.078;11.684;2023-03-23T06:25:25;12.82;;;4.00;;
37873;SDS011;23709;48.078;11.684;2023-03-23T06:28:01;7.80;;;4.40;;
37873;SDS011;23709;48.078;11.684;2023-03-23T06:30:36;6.80;;;3.45;;
37873;SDS011;23709;48.078;11.684;2023-03-23T06:33:10;7.45;;;3.85;;
37873;SDS011;23709;48.078;11.684;2023-03-23T06:36:18;11.63;;;3.88;;
37873;SDS011;23709;48.078;11.684;2023-03-23T06:39:14;8.35;;;3.28;;
37873;SDS011;23709;48.078;11.684;2023-03-23T06:42:10;10.07;;;3.80;;
37873;SDS011;23709;48.078;11.684;2023-03-23T06:44:49;9.27;;;3.70;;
37873;SDS011;23709;48.078;11.684;2023-03-23T06:47:23;6.60;;;3.58;;
37873;SDS011;23709;48.078;11.684;2023-03-23T06:49:56;13.68;;;3.92;;
37873;SDS011;23709;48.078;11.684;2023-03-23T06:52:31;14.45;;;3.85;;
37873;SDS011;23709;48.078;11.684;2023-03-23T06:55:04;11.05;;;3.42;;
37873;SDS011;23709;48.078;11.684;2023-03-23T06:57:37;16.02;;;4.43;;
37873;SDS011;23709;48.078;11.684;2023-03-23T07:00:10;18.05;;;3.70;;
37873;SDS011;23709;48.078;11.684;2023-03-23T07:02:46;12.07;;;3.63;;
37873;SDS011;23709;48.078;11.684;2023-03-23T07:05:19;10.20;;;4.20;;
37873;SDS011;23709;48.078;11.684;2023-03-23T07:07:54;18.95;;;4.10;;
37873;SDS011;23709;48.078;11.684;2023-03-23T07:10:35;13.35;;;3.47;;
37873;SDS011;23709;48.078;11.684;2023-03-23T07:13:09;11.52;;;3.72;;
37873;SDS011;23709;48.078;11.684;2023-03-23T07:15:49;7.72;;;3.35;;
37873;SDS011;23709;48.078;11.684;2023-03-23T07:18:23;8.38;;;3.53;;
37873;SDS011;23709;48.078;11.684;2023-03-23T07:20:57;12.63;;;3.80;;
37873;SDS011;23709;48.078;11.684;2023-03-23T07:23:34;9.18;;;3.58;;
37873;SDS011;23709;48.078;11.684;2023-03-23T07:26:13;4.93;;;3.20;;
37873;SDS011;23709;48.078;11.684;2023-03-23T07:28:54;5.35;;;2.63;;
37873;SDS011;23709;48.078;11.684;2023-03-23T07:31:32;10.27;;;2.78;;
37873;SDS011;23709;48.078;11.684;2023-03-23T07:34:05;10.25;;;3.08;;
37873;SDS011;23709;48.078;11.684;2023-03-23T07:36:48;6.47;;;2.97;;
37873;SDS011;23709;48.078;11.684;2023-03-23T07:39:21;4.32;;;2.85;;
37873;SDS011;23709;48.078;11.684;2023-03-23T07:41:58;10.00;;;2.90;;
37873;SDS011;23709;48.078;11.684;2023-03-23T07:44:52;4.90;;;3.00;;
37873;SDS011;23709;48.078;11.684;2023-03-23T07:47:25;10.23;;;3.13;;
37873;SDS011;23709;48.078;11.684;2023-03-23T07:50:05;5.68;;;3.10;;
37873;SDS011;23709;48.078;11.684;2023-03-23T07:52:41;18.40;;;8.55;;
37873;SDS011;23709;48.078;11.684;2023-03-23T07:55:14;6.22;;;3.42;;
37873;SDS011;23709;48.078;11.684;2023-03-23T07:58:03;7.07;;;3.20;;
37873;SDS011;23709;48.078;11.684;2023-03-23T08:00:36;10.13;;;3.65;;
37873;SDS011;23709;48.078;11.684;2023-03-23T08:03:10;13.07;;;2.97;;
37873;SDS011;23709;48.078;11.684;2023-03-23T08:06:00;7.05;;;3.03;;
37873;SDS011;23709;48.078;11.684;2023-03-23T08:09:12;7.57;;;2.63;;
37873;SDS011;23709;48.078;11.684;2023-03-23T08:12:04;7.57;;;3.00;;
37873;SDS011;23709;48.078;11.684;2023-03-23T08:15:01;8.77;;;2.72;;
37873;SDS011;23709;48.078;11.684;2023-03-23T08:17:51;13.77;;;2.63;;
37873;SDS011;23709;48.078;11.684;2023-03-23T08:20:43;8.73;;;2.67;;
37873;SDS011;23709;48.078;11.684;2023-03-23T08:23:36;5.00;;;2.50;;
37873;SDS011;23709;48.078;11.684;2023-03-23T08:26:35;3.63;;;2.35;;
37873;SDS011;23709;48.078;11.684;2023-03-23T08:29:18;4.30;;;2.65;;
37873;SDS011;23709;48.078;11.684;2023-03-23T08:32:03;7.28;;;2.70;;
37873;SDS011;23709;48.078;11.684;2023-03-23T08:34:54;5.75;;;2.70;;
37873;SDS011;23709;48.078;11.684;2023-03-23T08:37:56;8.95;;;2.60;;
37873;SDS011;23709;48.078;11.684;2023-03-23T08:40:47;7.15;;;2.45;;
37873;SDS011;23709;48.078;11.684;2023-03-23T08:43:59;4.72;;;2.90;;
37873;SDS011;23709;48.078;11.684;2023-03-23T08:46:35;3.30;;;2.25;;
37873;SDS011;23709;48.078;11.684;2023-03-23T08:49:07;5.72;;;2.50;;
37873;SDS011;23709;48.078;11.684;2023-03-23T08:52:11;6.93;;;2.67;;
37873;SDS011;23709;48.078;11.684;2023-03-23T08:55:02;3.13;;;2.20;;
37873;SDS011;23709;48.078;11.684;2023-03-23T08:57:57;8.13;;;2.47;;
37873;SDS011;23709;48.078;11.684;2023-03-23T09:00:58;4.82;;;2.40;;
37873;SDS011;23709;48.078;11.684;2023-03-23T09:03:53;6.90;;;2.78;;
37873;SDS011;23709;48.078;11.684;2023-03-23T09:06:42;6.63;;;3.25;;
37873;SDS011;23709;48.078;11.684;2023-03-23T09:09:16;4.88;;;2.25;;
37873;SDS011;23709;48.078;11.684;2023-03-23T09:11:48;9.07;;;3.25;;
37873;SDS011;23709;48.078;11.684;2023-03-23T09:14:21;7.00;;;2.87;;
37873;SDS011;23709;48.078;11.684;2023-03-23T09:16:53;6.43;;;2.88;;
37873;SDS011;23709;48.078;11.684;2023-03-23T09:19:26;5.68;;;2.85;;
37873;SDS011;23709;48.078;11.684;2023-03-23T09:21:59;4.65;;;2.67;;
37873;SDS011;23709;48.078;11.684;2023-03-23T09:24:31;6.10;;;2.60;;
37873;SDS011;23709;48.078;11.684;2023-03-23T09:27:04;4.55;;;2.80;;
37873;SDS011;23709;48.078;11.684;2023-03-23T09:29:36;5.60;;;2.87;;
37873;SDS011;23709;48.078;11.684;2023-03-23T09:32:09;5.00;;;3.10;;
37873;SDS011;23709;48.078;11.684;2023-03-23T09:34:42;5.85;;;2.92;;
37873;SDS011;23709;48.078;11.684;2023-03-23T09:37:14;6.38;;;2.72;;
37873;SDS011;23709;48.078;11.684;2023-03-23T09:39:48;5.53;;;3.15;;
37873;SDS011;23709;48.078;11.684;2023-03-23T09:42:49;5.35;;;2.85;;
37873;SDS011;23709;48.078;11.684;2023-03-23T09:49:29;6.05;;;3.05;;
37873;SDS011;23709;48.078;11.684;2023-03-23T09:54:37;7.38;;;3.28;;
37873;SDS011;23709;48.078;11.684;2023-03-23T09:57:14;6.55;;;3.50;;
37873;SDS011;23709;48.078;11.684;2023-03-23T10:00:03;5.97;;;2.85;;
37873;SDS011;23709;48.078;11.684;2023-03-23T10:02:49;4.50;;;2.92;;
37873;SDS011;23709;48.078;11.684;2023-03-23T10:05:35;5.78;;;2.95;;
37873;SDS011;23709;48.078;11.684;2023-03-23T10:08:15;6.40;;;3.10;;
37873;SDS011;23709;48.078;11.684;2023-03-23T10:13:50;5.95;;;2.75;;
37873;SDS011;23709;48.078;11.684;2023-03-23T10:16:25;5.13;;;3.30;;
37873;SDS011;23709;48.078;11.684;2023-03-23T10:21:45;6.53;;;3.80;;
37873;SDS011;23709;48.078;11.684;2023-03-23T10:24:26;11.65;;;4.25;;
37873;SDS011;23709;48.078;11.684;2023-03-23T10:29:50;7.82;;;4.03;;
37873;SDS011;23709;48.078;11.684;2023-03-23T10:33:02;5.07;;;3.78;;
37873;SDS011;23709;48.078;11.684;2023-03-23T10:35:39;6.38;;;3.25;;
37873;SDS011;23709;48.078;11.684;2023-03-23T10:38:31;5.72;;;3.88;;
37873;SDS011;23709;48.078;11.684;2023-03-23T10:41:12;5.95;;;3.05;;
37873;SDS011;23709;48.078;11.684;2023-03-23T10:43:49;6.65;;;3.85;;
37873;SDS011;23709;48.078;11.684;2023-03-23T10:49:22;9.63;;;4.07;;
37873;SDS011;23709;48.078;11.684;2023-03-23T10:51:59;12.45;;;4.38;;
37873;SDS011;23709;48.078;11.684;2023-03-23T10:54:45;6.03;;;4.03;;
37873;SDS011;23709;48.078;11.684;2023-03-23T11:02:40;8.30;;;4.60;;
37873;SDS011;23709;48.078;11.684;2023-03-23T11:05:16;6.15;;;4.43;;
37873;SDS011;23709;48.078;11.684;2023-03-23T11:07:56;7.95;;;4.47;;
37873;SDS011;23709;48.078;11.684;2023-03-23T11:10:36;7.22;;;4.60;;
37873;SDS011;23709;48.078;11.684;2023-03-23T11:13:13;8.70;;;4.83;;
37873;SDS011;23709;48.078;11.684;2023-03-23T11:15:48;10.60;;;4.88;;
37873;SDS011;23709;48.078;11.684;2023-03-23T11:20:56;9.05;;;4.50;;
37873;SDS011;23709;48.078;11.684;2023-03-23T11:23:32;9.75;;;4.70;;
37873;SDS011;23709;48.078;11.684;2023-03-23T11:26:12;7.85;;;4.22;;
37873;SDS011;23709;48.078;11.684;2023-03-23T11:31:31;10.05;;;4.53;;
37873;SDS011;23709;48.078;11.684;2023-03-23T11:37:10;6.72;;;4.15;;
37873;SDS011;23709;48.078;11.684;2023-03-23T11:39:53;9.55;;;4.82;;
37873;SDS011;23709;48.078;11.684;2023-03-23T11:45:20;7.88;;;4.38;;
37873;SDS011;23709;48.078;11.684;2023-03-23T11:50:50;6.40;;;4.05;;
37873;SDS011;23709;48.078;11.684;2023-03-23T11:53:35;9.63;;;5.00;;
37873;SDS011;23709;48.078;11.684;2023-03-23T11:56:15;8.63;;;4.82;;
37873;SDS011;23709;48.078;11.684;2023-03-23T11:58:49;10.05;;;4.78;;
37873;SDS011;23709;48.078;11.684;2023-03-23T12:07:10;8.63;;;4.72;;
37873;SDS011;23709;48.078;11.684;2023-03-23T12:12:28;9.57;;;4.93;;
37873;SDS011;23709;48.078;11.684;2023-03-23T12:28:57;6.72;;;4.20;;
37873;SDS011;23709;48.078;11.684;2023-03-23T12:37:42;6.50;;;3.70;;
37873;SDS011;23709;48.078;11.684;2023-03-23T12:43:27;13.75;;;4.80;;
37873;SDS011;23709;48.078;11.684;2023-03-23T12:46:20;10.68;;;4.22;;
37873;SDS011;23709;48.078;11.684;2023-03-23T12:49:39;5.03;;;3.70;;
37873;SDS011;23709;48.078;11.684;2023-03-23T12:52:21;10.88;;;6.10;;
37873;SDS011;23709;48.078;11.684;2023-03-23T12:55:00;10.65;;;4.72;;
37873;SDS011;23709;48.078;11.684;2023-03-23T12:57:57;6.60;;;4.22;;
37873;SDS011;23709;48.078;11.684;2023-03-23T13:00:47;6.88;;;4.30;;
37873;SDS011;23709;48.078;11.684;2023-03-23T13:03:23;9.88;;;3.63;;
37873;SDS011;23709;48.078;11.684;2023-03-23T13:11:34;5.10;;;2.50;;
37873;SDS011;23709;48.078;11.684;2023-03-23T13:25:18;7.28;;;2.47;;
37873;SDS011;23709;48.078;11.684;2023-03-23T13:27:59;7.78;;;2.42;;
37873;SDS011;23709;48.078;11.684;2023-03-23T13:30:35;4.22;;;1.98;;
37873;SDS011;23709;48.078;11.684;2023-03-23T13:33:11;5.25;;;2.00;;
37873;SDS011;23709;48.078;11.684;2023-03-23T13:35:44;10.70;;;2.08;;
37873;SDS011;23709;48.078;11.684;2023-03-23T13:38:19;9.05;;;2.47;;
37873;SDS011;23709;48.078;11.684;2023-03-23T13:40:52;3.15;;;2.10;;
37873;SDS011;23709;48.078;11.684;2023-03-23T13:43:30;2.80;;;2.22;;
37873;SDS011;23709;48.078;11.684;2023-03-23T13:46:09;4.00;;;2.35;;
37873;SDS011;23709;48.078;11.684;2023-03-23T13:49:23;4.18;;;2.65;;
37873;SDS011;23709;48.078;11.684;2023-03-23T13:52:01;4.30;;;2.40;;
37873;SDS011;23709;48.078;11.684;2023-03-23T13:54:47;3.65;;;2.08;;
37873;SDS011;23709;48.078;11.684;2023-03-23T13:57:37;6.45;;;2.38;;
37873;SDS011;23709;48.078;11.684;2023-03-23T14:05:45;4.43;;;2.50;;
37873;SDS011;23709;48.078;11.684;2023-03-23T14:08:24;3.22;;;2.10;;
37873;SDS011;23709;48.078;11.684;2023-03-23T14:11:13;6.13;;;2.53;;
37873;SDS011;23709;48.078;11.684;2023-03-23T14:16:39;5.72;;;1.98;;
37873;SDS011;23709;48.078;11.684;2023-03-23T14:19:26;3.65;;;2.17;;
37873;SDS011;23709;48.078;11.684;2023-03-23T14:22:03;3.42;;;2.17;;
37873;SDS011;23709;48.078;11.684;2023-03-23T14:24:39;3.58;;;2.38;;
37873;SDS011;23709;48.078;11.684;2023-03-23T14:27:14;5.28;;;2.47;;
37873;SDS011;23709;48.078;11.684;2023-03-23T14:30:00;5.40;;;2.13;;
37873;SDS011;23709;48.078;11.684;2023-03-23T14:32:38;2.97;;;2.30;;
37873;SDS011;23709;48.078;11.684;2023-03-23T14:37:55;2.03;;;1.80;;
37873;SDS011;23709;48.078;11.684;2023-03-23T14:40:29;5.32;;;2.85;;
37873;SDS011;23709;48.078;11.684;2023-03-23T14:43:03;5.18;;;2.17;;
37873;SDS011;23709;48.078;11.684;2023-03-23T14:45:37;4.07;;;2.05;;
37873;SDS011;23709;48.078;11.684;2023-03-23T14:48:12;13.00;;;2.40;;
37873;SDS011;23709;48.078;11.684;2023-03-23T14:51:01;6.97;;;2.13;;
37873;SDS011;23709;48.078;11.684;2023-03-23T14:53:37;6.03;;;2.22;;
37873;SDS011;23709;48.078;11.684;2023-03-23T14:56:12;3.85;;;2.28;;
37873;SDS011;23709;48.078;11.684;2023-03-23T14:58:46;10.40;;;2.53;;
37873;SDS011;23709;48.078;11.684;2023-03-23T15:01:23;4.57;;;1.65;;
37873;SDS011;23709;48.078;11.684;2023-03-23T15:04:00;9.00;;;3.00;;
37873;SDS011;23709;48.078;11.684;2023-03-23T15:06:35;4.55;;;2.15;;
37873;SDS011;23709;48.078;11.684;2023-03-23T15:09:13;4.53;;;2.40;;
37873;SDS011;23709;48.078;11.684;2023-03-23T15:11:51;4.28;;;2.22;;
37873;SDS011;23709;48.078;11.684;2023-03-23T15:14:32;3.40;;;2.17;;
37873;SDS011;23709;48.078;11.684;2023-03-23T15:17:22;3.28;;;2.20;;
37873;SDS011;23709;48.078;11.684;2023-03-23T15:19:57;4.78;;;2.20;;
37873;SDS011;23709;48.078;11.684;2023-03-23T15:22:32;6.78;;;2.67;;
37873;SDS011;23709;48.078;11.684;2023-03-23T15:27:53;3.58;;;2.22;;
37873;SDS011;23709;48.078;11.684;2023-03-23T15:30:29;3.63;;;2.22;;
37873;SDS011;23709;48.078;11.684;2023-03-23T15:33:09;3.78;;;1.90;;
37873;SDS011;23709;48.078;11.684;2023-03-23T15:35:48;4.57;;;2.25;;
37873;SDS011;23709;48.078;11.684;2023-03-23T15:41:06;6.97;;;2.22;;
37873;SDS011;23709;48.078;11.684;2023-03-23T15:43:57;5.45;;;2.10;;
37873;SDS011;23709;48.078;11.684;2023-03-23T15:46:30;5.85;;;2.20;;
37873;SDS011;23709;48.078;11.684;2023-03-23T15:49:10;5.05;;;2.33;;
37873;SDS011;23709;48.078;11.684;2023-03-23T15:51:45;5.25;;;2.85;;
37873;SDS011;23709;48.078;11.684;2023-03-23T15:54:17;10.27;;;2.65;;
37873;SDS011;23709;48.078;11.684;2023-03-23T15:56:49;5.38;;;2.97;;
37873;SDS011;23709;48.078;11.684;2023-03-23T15:59:22;4.65;;;2.40;;
37873;SDS011;23709;48.078;11.684;2023-03-23T16:01:54;5.13;;;2.63;;
37873;SDS011;23709;48.078;11.684;2023-03-23T16:04:28;4.25;;;2.55;;
37873;SDS011;23709;48.078;11.684;2023-03-23T16:07:01;5.15;;;2.80;;
37873;SDS011;23709;48.078;11.684;2023-03-23T16:09:33;10.60;;;2.80;;
37873;SDS011;23709;48.078;11.684;2023-03-23T16:12:08;4.93;;;3.40;;
37873;SDS011;23709;48.078;11.684;2023-03-23T16:14:42;4.15;;;2.65;;
37873;SDS011;23709;48.078;11.684;2023-03-23T16:17:18;6.80;;;2.65;;
37873;SDS011;23709;48.078;11.684;2023-03-23T16:19:51;5.47;;;2.47;;
37873;SDS011;23709;48.078;11.684;2023-03-23T16:22:23;5.60;;;2.25;;
37873;SDS011;23709;48.078;11.684;2023-03-23T16:24:55;4.53;;;2.40;;
37873;SDS011;23709;48.078;11.684;2023-03-23T16:27:27;5.90;;;2.85;;
37873;SDS011;23709;48.078;11.684;2023-03-23T16:30:00;4.82;;;2.50;;
37873;SDS011;23709;48.078;11.684;2023-03-23T16:32:35;4.15;;;2.78;;
37873;SDS011;23709;48.078;11.684;2023-03-23T16:35:06;4.32;;;2.55;;
37873;SDS011;23709;48.078;11.684;2023-03-23T16:37:45;5.22;;;2.67;;
37873;SDS011;23709;48.078;11.684;2023-03-23T16:40:38;7.57;;;3.28;;
37873;SDS011;23709;48.078;11.684;2023-03-23T16:45:45;6.88;;;3.75;;
37873;SDS011;23709;48.078;11.684;2023-03-23T16:48:18;9.02;;;3.20;;
37873;SDS011;23709;48.078;11.684;2023-03-23T16:50:50;7.65;;;4.20;;
37873;SDS011;23709;48.078;11.684;2023-03-23T16:53:23;6.70;;;4.60;;
37873;SDS011;23709;48.078;11.684;2023-03-23T16:55:55;4.22;;;3.22;;
37873;SDS011;23709;48.078;11.684;2023-03-23T16:58:28;9.00;;;4.03;;
37873;SDS011;23709;48.078;11.684;2023-03-23T17:01:01;5.03;;;3.28;;
37873;SDS011;23709;48.078;11.684;2023-03-23T17:03:34;5.47;;;4.00;;
37873;SDS011;23709;48.078;11.684;2023-03-23T17:06:07;4.85;;;3.50;;
37873;SDS011;23709;48.078;11.684;2023-03-23T17:08:40;8.38;;;3.78;;
37873;SDS011;23709;48.078;11.684;2023-03-23T17:11:12;6.35;;;4.15;;
37873;SDS011;23709;48.078;11.684;2023-03-23T17:13:44;13.38;;;4.32;;
37873;SDS011;23709;48.078;11.684;2023-03-23T17:16:17;8.80;;;4.30;;
37873;SDS011;23709;48.078;11.684;2023-03-23T17:18:49;7.40;;;4.75;;
37873;SDS011;23709;48.078;11.684;2023-03-23T17:21:21;6.00;;;4.07;;
37873;SDS011;23709;48.078;11.684;2023-03-23T17:23:56;6.07;;;3.70;;
37873;SDS011;23709;48.078;11.684;2023-03-23T17:26:28;6.97;;;3.40;;
37873;SDS011;23709;48.078;11.684;2023-03-23T17:29:01;5.65;;;3.40;;
37873;SDS011;23709;48.078;11.684;2023-03-23T17:31:35;5.97;;;4.03;;
37873;SDS011;23709;48.078;11.684;2023-03-23T17:34:07;7.73;;;4.37;;
37873;SDS011;23709;48.078;11.684;2023-03-23T17:36:39;7.07;;;4.20;;
37873;SDS011;23709;48.078;11.684;2023-03-23T17:39:12;8.85;;;4.35;;
37873;SDS011;23709;48.078;11.684;2023-03-23T17:41:44;8.10;;;4.78;;
37873;SDS011;23709;48.078;11.684;2023-03-23T17:44:16;7.38;;;4.43;;
37873;SDS011;23709;48.078;11.684;2023-03-23T17:46:49;7.78;;;5.20;;
37873;SDS011;23709;48.078;11.684;2023-03-23T17:49:22;9.00;;;5.00;;
37873;SDS011;23709;48.078;11.684;2023-03-23T17:51:57;7.45;;;5.53;;
37873;SDS011;23709;48.078;11.684;2023-03-23T17:54:30;8.05;;;4.90;;
37873;SDS011;23709;48.078;11.684;2023-03-23T17:57:03;10.05;;;7.40;;